createdAt,value
2018-01-11T00:03:19.080Z,77.59
2018-01-11T00:08:19.097Z,77.59
2018-01-11T00:13:18.939Z,77.5
2018-01-11T00:18:18.862Z,77.5
2018-01-11T00:23:18.799Z,77.31
2018-01-11T00:28:18.485Z,77.59
2018-01-11T00:33:18.413Z,76.92
2018-01-11T00:38:18.573Z,77.59
2018-01-11T00:43:18.570Z,77.65
2018-01-11T00:48:18.434Z,77.46
2018-01-11T00:53:18.362Z,77.56
2018-01-11T00:58:18.344Z,77.36
2018-01-11T01:03:18.269Z,77.36
2018-01-11T01:08:18.154Z,77.94
2018-01-11T01:13:18.077Z,77.36
2018-01-11T01:18:17.996Z,77.65
2018-01-11T01:23:17.672Z,77.46
2018-01-11T01:28:17.853Z,77.26
2018-01-11T01:33:17.782Z,77.17
2018-01-11T01:38:17.687Z,77.36
2018-01-11T01:43:17.615Z,77.36
2018-01-11T01:48:17.529Z,77.84
2018-01-11T01:53:17.462Z,77.56
2018-01-11T01:58:17.397Z,78
2018-01-11T02:03:17.299Z,77.33
2018-01-11T02:08:17.272Z,77.51
2018-01-11T02:13:17.141Z,77.71
2018-01-11T02:18:17.071Z,77.71
2018-01-11T02:23:16.997Z,77.61
2018-01-11T02:28:16.935Z,77.9
2018-01-11T02:33:16.843Z,77.51
2018-01-11T02:38:16.859Z,77.8
2018-01-11T02:43:16.710Z,77.71
2018-01-11T02:48:16.365Z,77.42
2018-01-11T02:53:16.536Z,77.61
2018-01-11T02:58:16.463Z,77.71
2018-01-11T03:03:16.421Z,77.61
2018-01-11T03:08:16.306Z,77.33
2018-01-11T03:13:16.232Z,77.42
2018-01-11T03:18:16.156Z,77.51
2018-01-11T03:23:16.087Z,77.61
2018-01-11T03:28:16.004Z,77.51
2018-01-11T03:33:15.680Z,77.51
2018-01-11T03:38:15.860Z,77.51
2018-01-11T03:43:15.794Z,77.42
2018-01-11T03:48:15.720Z,76.94
2018-01-11T03:53:15.640Z,77.04
2018-01-11T03:58:15.570Z,76.46
2018-01-11T04:03:15.487Z,77.42
2018-01-11T04:08:15.416Z,77.42
2018-01-11T04:13:15.328Z,77.23
2018-01-11T04:18:15.255Z,77.58
2018-01-11T04:23:15.178Z,77.58
2018-01-11T04:28:15.198Z,77.95
2018-01-11T04:33:15.024Z,77.86
2018-01-11T04:38:14.947Z,77.86
2018-01-11T04:43:14.858Z,77.86
2018-01-11T04:48:14.768Z,78.25
2018-01-11T04:53:14.694Z,78.05
2018-01-11T04:58:14.615Z,78.15
2018-01-11T05:03:14.548Z,78.05
2018-01-11T05:08:14.454Z,77.95
2018-01-11T05:13:14.360Z,77.95
2018-01-11T05:18:14.300Z,78.53
2018-01-11T05:23:14.207Z,78.11
2018-01-11T05:28:14.121Z,78.34
2018-01-11T05:33:14.048Z,78.49
2018-01-11T05:38:13.962Z,78.2
2018-01-11T05:43:13.884Z,78.49
2018-01-11T05:48:13.794Z,78.69
2018-01-11T05:53:13.712Z,78.69
2018-01-11T05:58:13.641Z,78.69
2018-01-11T06:03:13.553Z,78.59
2018-01-11T06:08:13.489Z,78.59
2018-01-11T06:13:13.391Z,78.59
2018-01-11T06:18:13.347Z,78.59
2018-01-11T06:23:13.227Z,78.69
2018-01-11T06:28:13.157Z,78.49
2018-01-11T06:33:13.203Z,78.2
2018-01-11T06:38:12.981Z,78.59
2018-01-11T06:43:12.884Z,78.4
2018-01-11T06:48:12.808Z,78.11
2018-01-11T06:53:12.767Z,77.95
2018-01-11T06:58:12.655Z,77.58
2018-01-11T07:03:12.565Z,77.48
2018-01-11T07:08:12.485Z,77.38
2018-01-11T07:13:12.409Z,77.29
2018-01-11T07:18:12.327Z,77.13
2018-01-11T07:23:12.259Z,77.13
2018-01-11T07:28:12.173Z,76.46
2018-01-11T07:33:12.097Z,77.04
2018-01-11T07:38:12.021Z,76.31
2018-01-11T07:43:11.958Z,76.21
2018-01-11T07:48:11.870Z,76.69
2018-01-11T07:53:11.804Z,76.59
2018-01-11T07:58:11.803Z,76.69
2018-01-11T08:03:11.650Z,76.5
2018-01-11T08:08:11.565Z,75.73
2018-01-11T08:13:11.495Z,75.54
2018-01-11T08:18:11.487Z,75.45
2018-01-11T08:23:11.344Z,76.21
2018-01-11T08:28:11.341Z,76.02
2018-01-11T08:33:11.189Z,76.02
2018-01-11T08:38:11.114Z,75.73
2018-01-11T08:43:11.039Z,77.59
2018-01-11T08:48:10.953Z,76.64
2018-01-11T08:53:10.913Z,77.59
2018-01-11T08:58:10.810Z,77.21
2018-01-11T09:03:10.770Z,77.98
2018-01-11T09:08:10.665Z,78.45
2018-01-11T09:13:10.588Z,78.17
2018-01-11T09:18:10.516Z,78.08
2018-01-11T09:23:10.438Z,77.84
2018-01-11T09:28:10.357Z,78.03
2018-01-11T09:33:10.289Z,77.94
2018-01-11T09:38:10.211Z,77.56
2018-01-11T09:43:10.137Z,77.56
2018-01-11T09:48:10.056Z,77.65
2018-01-11T09:53:09.991Z,77.5
2018-01-11T09:58:09.913Z,77.4
2018-01-11T10:03:09.824Z,77.59
2018-01-11T10:08:09.757Z,77.5
2018-01-11T10:13:09.422Z,77.5
2018-01-11T10:18:09.601Z,77.5
2018-01-11T10:23:09.539Z,77.5
2018-01-11T10:28:09.470Z,77.11
2018-01-11T10:33:09.405Z,77.5
2018-01-11T10:38:09.311Z,77.5
2018-01-11T10:43:09.237Z,77.59
2018-01-11T10:48:09.149Z,77.4
2018-01-11T10:53:09.081Z,77.01
2018-01-11T10:58:09.013Z,77.4
2018-01-11T11:03:08.929Z,77.21
2018-01-11T11:08:08.859Z,77.78
2018-01-11T11:13:08.775Z,77.59
2018-01-11T11:18:08.703Z,77.59
2018-01-11T11:23:08.631Z,77.69
2018-01-11T11:28:08.552Z,77.69
2018-01-11T11:33:08.482Z,77.21
2018-01-11T11:38:08.409Z,76.92
2018-01-11T11:43:08.334Z,76.92
2018-01-11T11:48:08.270Z,77.31
2018-01-11T11:53:08.187Z,77.11
2018-01-11T11:58:08.116Z,76.82
2018-01-11T12:03:08.048Z,76.34
2018-01-11T12:08:07.977Z,75.81
2018-01-11T12:13:07.915Z,74.02
2018-01-11T12:18:07.834Z,72.32
2018-01-11T12:23:07.773Z,73.51
2018-01-11T12:28:07.688Z,74.34
2018-01-11T12:33:07.671Z,75.46
2018-01-11T12:38:07.295Z,76.57
2018-01-11T12:43:07.486Z,77.44
2018-01-11T12:48:07.412Z,77.63
2018-01-11T12:53:07.417Z,77.63
2018-01-11T12:58:07.272Z,78.3
2018-01-11T13:03:07.258Z,77.92
2018-01-11T13:08:07.226Z,78.69
2018-01-11T13:13:06.831Z,78.55
2018-01-11T13:18:06.985Z,78.69
2018-01-11T13:23:06.913Z,77.92
2018-01-11T13:28:06.852Z,77.63
2018-01-11T13:33:06.762Z,78.02
2018-01-11T13:38:06.708Z,77.44
2018-01-11T13:43:06.631Z,78.11
2018-01-11T13:48:06.563Z,77.53
2018-01-11T13:53:06.483Z,77.88
2018-01-11T13:58:06.412Z,77.98
2018-01-11T14:03:06.360Z,78.27
2018-01-11T14:08:06.262Z,78.27
2018-01-11T14:13:06.189Z,78.36
2018-01-11T14:18:06.135Z,78.08
2018-01-11T14:23:06.047Z,78.17
2018-01-11T14:28:05.963Z,77.98
2018-01-11T14:33:05.958Z,77.78
2018-01-11T14:38:05.826Z,77.69
2018-01-11T14:43:05.777Z,77.69
2018-01-11T14:48:05.673Z,77.69
2018-01-11T14:53:05.611Z,77.69
2018-01-11T14:58:05.539Z,78.17
2018-01-11T15:03:05.527Z,77.31
2018-01-11T15:08:05.395Z,77.5
2018-01-11T15:13:05.338Z,77.21
2018-01-11T15:18:05.268Z,77.21
2018-01-11T15:23:05.190Z,77.4
2018-01-11T15:28:05.095Z,77.4
2018-01-11T15:33:05.021Z,77.01
2018-01-11T15:38:05.028Z,77.5
2018-01-11T15:43:04.872Z,77.4
2018-01-11T15:48:04.802Z,77.59
2018-01-11T15:53:04.715Z,77.01
2018-01-11T15:58:04.651Z,77.31
2018-01-11T16:03:04.589Z,77.01
2018-01-11T16:08:04.524Z,77.59
2018-01-11T16:13:04.439Z,76.92
2018-01-11T16:18:04.373Z,76.82
2018-01-11T16:23:04.297Z,76.25
2018-01-11T16:28:04.228Z,76.54
2018-01-11T16:33:04.150Z,76.54
2018-01-11T16:38:04.084Z,76.64
2018-01-11T16:43:04.440Z,77.5
2018-01-11T16:48:03.943Z,77.5
2018-01-11T16:53:03.865Z,78.84
2018-01-11T16:58:03.792Z,78.75
2018-01-11T17:03:03.736Z,78.65
2018-01-11T17:08:03.661Z,78.11
2018-01-11T17:13:03.677Z,78.15
2018-01-11T17:18:03.575Z,77.86
2018-01-11T17:23:03.460Z,76.81
2018-01-11T17:28:03.403Z,76.42
2018-01-11T17:33:03.322Z,75.75
2018-01-11T17:38:03.279Z,75.84
2018-01-11T17:43:03.197Z,74.69
2018-01-11T17:48:03.236Z,75.46
2018-01-11T17:53:03.081Z,74.79
2018-01-11T17:58:02.990Z,75.37
2018-01-11T18:03:02.922Z,75.94
2018-01-11T18:08:02.850Z,75.27
2018-01-11T18:13:02.783Z,75.27
2018-01-11T18:18:02.728Z,75.27
2018-01-11T18:23:02.656Z,74.4
2018-01-11T18:28:02.579Z,74.88
2018-01-11T18:33:02.519Z,74.02
2018-01-11T18:38:02.459Z,74.4
2018-01-11T18:43:02.372Z,73.83
2018-01-11T18:48:02.302Z,75.37
2018-01-11T18:53:02.244Z,75.27
2018-01-11T18:58:02.170Z,74.69
2018-01-11T19:03:02.156Z,74.69
2018-01-11T19:08:02.040Z,73.92
2018-01-11T19:13:01.975Z,74.21
2018-01-11T19:18:01.891Z,73.83
2018-01-11T19:23:01.826Z,74.11
2018-01-11T19:28:01.773Z,74.4
2018-01-11T19:33:01.687Z,72.67
2018-01-11T19:38:01.625Z,74.11
2018-01-11T19:43:01.548Z,74.11
2018-01-11T19:48:01.477Z,73.92
2018-01-11T19:53:01.405Z,74.02
2018-01-11T19:58:01.364Z,72.96
2018-01-11T20:03:01.270Z,72.48
2018-01-11T20:08:01.237Z,72.58
2018-01-11T20:13:01.134Z,72.29
2018-01-11T20:18:01.064Z,72.77
2018-01-11T20:23:00.994Z,72.96
2018-01-11T20:28:00.921Z,72.58
2018-01-11T20:33:00.854Z,73.06
2018-01-11T20:38:00.780Z,72.58
2018-01-11T20:43:00.714Z,72.58
2018-01-11T20:48:00.646Z,72.19
2018-01-11T20:53:00.578Z,72.19
2018-01-11T20:58:00.538Z,71.23
2018-01-11T21:03:00.436Z,71.42
2018-01-11T21:08:00.384Z,72.29
2018-01-11T21:13:00.414Z,72.09
2018-01-11T21:18:00.236Z,72.48
2018-01-11T21:23:00.168Z,72.09
2018-01-11T21:28:00.108Z,71.42
2018-01-11T21:33:00.033Z,71.36
2018-01-11T21:37:59.959Z,71.65
2018-01-11T21:43:00.015Z,71.84
2018-01-11T21:47:59.852Z,72.36
2018-01-11T21:52:59.749Z,72.42
2018-01-11T21:57:59.688Z,73.67
2018-01-11T22:02:59.626Z,71.46
2018-01-11T22:07:59.565Z,71.46
2018-01-11T22:12:59.485Z,71.75
2018-01-11T22:17:59.566Z,72.03
2018-01-11T22:22:59.350Z,72.23
2018-01-11T22:27:59.372Z,73
2018-01-11T22:32:59.209Z,72.8
2018-01-11T22:37:59.188Z,73.28
2018-01-11T22:42:59.073Z,72.77
2018-01-11T22:47:58.999Z,73.54
2018-01-11T22:52:58.930Z,74.4
2018-01-11T22:57:58.859Z,74.6
2018-01-11T23:02:58.785Z,74.4
2018-01-11T23:07:58.725Z,74.88
2018-01-11T23:12:58.648Z,75.27
2018-01-11T23:17:58.574Z,75.32
2018-01-11T23:22:58.579Z,74.55
2018-01-11T23:27:58.442Z,74.75
2018-01-11T23:32:58.367Z,74.75
2018-01-11T23:37:58.295Z,74.27
2018-01-11T23:42:58.309Z,74.08
2018-01-11T23:47:58.140Z,74.46
2018-01-11T23:52:58.084Z,74.37
2018-01-11T23:57:58.024Z,74.17
